Time;durP1;ratioP1;P1;durP2;ratioP2;P2;SDS_P1;SDS_P2;PMS_P1;PMS_P2;Temp;Humidity;BMP_temperature;BMP_pressure;BME280_temperature;BME280_humidity;BME280_pressure;Samples;Min_cycle;Max_cycle;Signal;HPM_P1;HPM_P2
2021/12/31 00:01:05;;;;;;;6.30;1.95;;;20.50;59.60;;;;;;4427976;32;20075;-76
2021/12/31 00:03:36;;;;;;;7.90;1.83;;;20.40;59.60;;;;;;4415020;32;20509;-79
2021/12/31 00:06:02;;;;;;;7.57;2.10;;;20.40;59.60;;;;;;4427553;32;20054;-77
2021/12/31 00:08:28;;;;;;;10.63;2.17;;;20.40;59.60;;;;;;4428735;32;20191;-77
2021/12/31 00:10:59;;;;;;;5.10;1.77;;;20.40;59.60;;;;;;4428604;32;20067;-77
2021/12/31 00:13:26;;;;;;;5.50;1.50;;;20.40;59.70;;;;;;4429183;32;20521;-77
2021/12/31 00:15:52;;;;;;;4.88;1.75;;;20.40;59.70;;;;;;4428393;32;20121;-78
2021/12/31 00:18:18;;;;;;;6.28;1.70;;;20.40;59.70;;;;;;4427507;32;20248;-77
2021/12/31 00:20:44;;;;;;;7.10;2.17;;;20.30;59.70;;;;;;4428482;32;20074;-77
2021/12/31 00:23:14;;;;;;;4.72;1.50;;;20.30;59.70;;;;;;4428614;32;20070;-77
2021/12/31 00:25:42;;;;;;;5.80;2.00;;;20.30;59.70;;;;;;4428904;32;20078;-80
2021/12/31 00:28:09;;;;;;;7.38;1.80;;;20.30;59.70;;;;;;4427454;32;20160;-77
2021/12/31 00:30:36;;;;;;;6.60;1.58;;;20.30;59.80;;;;;;4428625;32;20078;-77
2021/12/31 00:33:03;;;;;;;7.72;1.98;;;20.30;59.80;;;;;;4428210;32;20255;-77
2021/12/31 00:35:30;;;;;;;8.23;1.77;;;20.30;59.80;;;;;;4428483;32;20137;-77
2021/12/31 00:37:57;;;;;;;6.13;2.13;;;20.30;59.70;;;;;;4428125;32;20083;-77
2021/12/31 00:40:25;;;;;;;4.78;1.50;;;20.20;59.80;;;;;;4428822;32;20098;-77
2021/12/31 00:42:51;;;;;;;5.78;1.92;;;20.20;59.80;;;;;;4427005;32;20525;-77
2021/12/31 00:45:19;;;;;;;6.75;1.70;;;20.30;59.90;;;;;;4428567;32;20642;-77
2021/12/31 00:47:46;;;;;;;6.72;1.63;;;20.20;59.90;;;;;;4428278;32;20096;-78
2021/12/31 00:50:13;;;;;;;5.78;1.60;;;20.20;59.90;;;;;;4428708;32;20535;-77
2021/12/31 00:52:40;;;;;;;6.75;1.80;;;20.20;59.90;;;;;;4427520;32;20083;-77
2021/12/31 00:55:08;;;;;;;5.55;1.90;;;20.20;59.90;;;;;;4428017;32;20149;-77
2021/12/31 00:57:37;;;;;;;6.90;1.80;;;20.20;59.90;;;;;;4427605;32;20300;-77
2021/12/31 01:00:05;;;;;;;6.05;1.70;;;20.20;59.90;;;;;;4428091;32;20239;-77
2021/12/31 01:02:31;;;;;;;4.90;1.30;;;20.20;59.90;;;;;;4428517;32;20063;-77
2021/12/31 01:04:57;;;;;;;6.85;1.80;;;20.10;59.80;;;;;;4427927;32;20512;-78
2021/12/31 01:07:23;;;;;;;7.63;1.75;;;20.10;59.80;;;;;;4428108;32;20264;-77
2021/12/31 01:09:49;;;;;;;5.53;1.92;;;20.20;59.90;;;;;;4428087;32;20122;-77
2021/12/31 01:12:15;;;;;;;5.30;1.50;;;20.20;59.90;;;;;;4428564;32;20120;-78
2021/12/31 01:14:55;;;;;;;4.30;1.50;;;20.10;60.00;;;;;;4428229;32;20071;-77
2021/12/31 01:17:38;;;;;;;5.65;1.50;;;20.10;59.90;;;;;;4428593;32;20082;-77
2021/12/31 01:20:06;;;;;;;8.63;2.33;;;20.10;59.90;;;;;;4427963;32;20082;-77
2021/12/31 01:22:33;;;;;;;5.35;1.73;;;20.10;60.00;;;;;;4440268;32;20086;-77
2021/12/31 01:25:00;;;;;;;6.30;1.63;;;20.10;60.00;;;;;;4428026;32;20122;-77
2021/12/31 01:27:26;;;;;;;4.97;1.58;;;20.10;60.00;;;;;;4428332;32;20066;-76
2021/12/31 01:29:52;;;;;;;5.25;1.50;;;20.10;60.00;;;;;;4428110;32;20216;-77
2021/12/31 01:32:17;;;;;;;7.13;1.58;;;20.10;60.00;;;;;;4428374;32;20074;-77
2021/12/31 01:34:44;;;;;;;6.72;1.73;;;20.10;60.00;;;;;;4428158;32;20101;-76
2021/12/31 01:37:10;;;;;;;6.95;1.95;;;20.00;59.90;;;;;;4427923;32;20117;-77
2021/12/31 01:39:37;;;;;;;3.75;1.27;;;20.10;59.90;;;;;;4428173;32;20092;-77
2021/12/31 01:42:07;;;;;;;6.15;1.85;;;20.00;59.80;;;;;;4427876;32;20220;-77
2021/12/31 01:44:37;;;;;;;4.43;1.30;;;20.00;60.00;;;;;;4429685;32;20097;-77
2021/12/31 01:47:11;;;;;;;5.63;1.50;;;20.00;59.90;;;;;;4430549;32;20095;-77
2021/12/31 01:49:40;;;;;;;5.07;1.98;;;20.00;59.90;;;;;;4431308;32;20089;-77
2021/12/31 01:52:08;;;;;;;7.65;1.92;;;20.00;60.00;;;;;;4430696;32;20086;-77
2021/12/31 01:54:36;;;;;;;7.47;2.22;;;20.00;59.90;;;;;;4429808;32;20071;-77
2021/12/31 01:57:04;;;;;;;5.55;1.67;;;20.00;59.80;;;;;;4430527;32;20095;-76
2021/12/31 01:59:32;;;;;;;5.82;1.50;;;20.00;59.80;;;;;;4430731;32;20168;-77
2021/12/31 02:01:59;;;;;;;5.38;1.55;;;19.90;59.80;;;;;;4430456;32;20109;-77
2021/12/31 02:04:27;;;;;;;5.60;1.92;;;19.90;59.80;;;;;;4430537;32;20164;-77
2021/12/31 02:06:53;;;;;;;5.47;1.73;;;19.90;59.80;;;;;;4430386;32;20168;-80
2021/12/31 02:09:19;;;;;;;7.13;1.48;;;19.90;59.80;;;;;;4430545;32;20122;-77
2021/12/31 02:11:45;;;;;;;4.15;1.45;;;19.90;59.80;;;;;;4429547;32;20090;-77
2021/12/31 02:14:11;;;;;;;5.80;1.63;;;19.90;59.70;;;;;;4430457;32;20536;-77
2021/12/31 02:16:37;;;;;;;4.45;1.48;;;19.90;59.80;;;;;;4429401;32;20521;-77
2021/12/31 02:19:17;;;;;;;5.60;1.50;;;19.90;59.70;;;;;;4440407;32;20136;-77
2021/12/31 02:21:44;;;;;;;5.10;1.83;;;19.90;60.70;;;;;;4445962;32;20078;-77
2021/12/31 02:24:12;;;;;;;5.28;1.70;;;19.90;59.80;;;;;;4445504;32;20079;-77
2021/12/31 02:26:38;;;;;;;6.57;1.77;;;19.90;59.80;;;;;;4445868;32;20156;-76
2021/12/31 02:29:04;;;;;;;6.72;1.40;;;19.90;59.80;;;;;;4445661;32;20086;-77
2021/12/31 02:31:30;;;;;;;9.65;2.38;;;19.90;59.70;;;;;;4431873;32;20096;-76
2021/12/31 02:33:56;;;;;;;7.68;2.10;;;19.90;59.80;;;;;;4445610;32;20567;-79
2021/12/31 02:36:22;;;;;;;6.22;1.60;;;19.80;59.70;;;;;;4445478;32;20220;-76
2021/12/31 02:38:48;;;;;;;4.70;1.60;;;19.80;59.70;;;;;;4431704;32;20082;-76
2021/12/31 02:41:15;;;;;;;5.18;1.73;;;19.80;59.70;;;;;;4445384;32;20102;-77
2021/12/31 02:43:40;;;;;;;6.05;1.50;;;19.80;59.70;;;;;;4445608;32;20136;-76
2021/12/31 02:46:06;;;;;;;6.28;1.80;;;19.80;59.70;;;;;;4445146;32;20078;-77
2021/12/31 02:48:32;;;;;;;5.70;1.60;;;19.80;59.70;;;;;;4445600;32;20073;-77
2021/12/31 02:51:01;;;;;;;6.35;1.67;;;19.80;59.70;;;;;;4445334;32;20183;-80
2021/12/31 02:53:36;;;;;;;6.93;1.80;;;19.80;59.70;;;;;;4445356;32;20413;-77
2021/12/31 02:56:06;;;;;;;5.80;1.50;;;19.80;59.70;;;;;;4444702;32;20129;-78
2021/12/31 02:58:33;;;;;;;7.13;1.67;;;19.80;59.60;;;;;;4445391;32;20074;-76
2021/12/31 03:01:00;;;;;;;5.90;1.40;;;19.80;59.60;;;;;;4445223;32;20145;-80
2021/12/31 03:03:27;;;;;;;4.45;1.38;;;19.80;59.60;;;;;;4445091;32;20074;-77
2021/12/31 03:05:54;;;;;;;5.88;1.63;;;19.70;59.60;;;;;;4444835;32;20077;-77
2021/12/31 03:08:23;;;;;;;6.28;2.00;;;19.70;59.50;;;;;;4444810;32;20282;-77
2021/12/31 03:10:49;;;;;;;5.25;1.70;;;19.70;59.50;;;;;;4445174;32;20424;-77
2021/12/31 03:13:16;;;;;;;7.22;1.60;;;19.70;59.60;;;;;;4445040;32;20078;-77
2021/12/31 03:15:43;;;;;;;5.65;1.80;;;19.70;59.50;;;;;;4445153;32;20485;-77
2021/12/31 03:18:10;;;;;;;4.88;1.58;;;19.70;59.60;;;;;;4444406;32;20523;-77
2021/12/31 03:20:41;;;;;;;6.53;1.60;;;19.70;59.50;;;;;;4431088;32;20066;-77
2021/12/31 03:23:07;;;;;;;4.97;1.60;;;19.70;59.50;;;;;;4444594;32;20523;-76
2021/12/31 03:25:33;;;;;;;5.07;1.35;;;19.70;59.50;;;;;;4444915;32;20074;-76
2021/12/31 03:27:59;;;;;;;5.72;1.60;;;19.70;59.50;;;;;;4445042;32;20117;-76
2021/12/31 03:30:26;;;;;;;5.85;1.83;;;19.70;59.60;;;;;;4444580;32;20778;-76
2021/12/31 03:32:53;;;;;;;6.32;1.88;;;19.70;59.60;;;;;;4444895;32;20074;-77
2021/12/31 03:35:19;;;;;;;5.45;1.60;;;19.70;59.50;;;;;;4444595;32;20078;-77
2021/12/31 03:37:44;;;;;;;4.38;1.35;;;19.70;59.50;;;;;;4444974;32;20084;-77
2021/12/31 03:40:11;;;;;;;6.60;1.70;;;19.70;59.50;;;;;;4444277;32;20177;-77
2021/12/31 03:42:39;;;;;;;4.10;1.15;;;19.70;59.50;;;;;;4417728;32;20523;-77
2021/12/31 03:45:06;;;;;;;6.15;1.50;;;19.60;59.50;;;;;;4418705;32;20519;-77
2021/12/31 03:47:32;;;;;;;6.18;2.00;;;19.70;59.50;;;;;;4428373;32;20588;-77
2021/12/31 03:49:57;;;;;;;6.28;1.63;;;19.70;59.50;;;;;;4428653;32;20504;-77
2021/12/31 03:52:23;;;;;;;5.18;1.73;;;19.60;59.40;;;;;;4430454;32;20093;-76
2021/12/31 03:54:49;;;;;;;6.82;1.60;;;19.60;59.40;;;;;;4428513;32;20117;-77
2021/12/31 03:57:15;;;;;;;6.03;1.95;;;19.60;59.40;;;;;;4430348;32;20141;-77
2021/12/31 03:59:40;;;;;;;5.35;1.48;;;19.60;59.40;;;;;;4428412;32;20078;-77
2021/12/31 04:02:06;;;;;;;5.03;1.58;;;19.60;59.40;;;;;;4428488;32;20085;-76
2021/12/31 04:04:32;;;;;;;5.97;1.40;;;19.60;59.40;;;;;;4428061;32;20059;-77
2021/12/31 04:06:58;;;;;;;4.13;1.40;;;19.60;59.40;;;;;;4427871;32;20196;-77
2021/12/31 04:09:24;;;;;;;5.45;2.05;;;19.60;59.40;;;;;;4427885;32;20165;-76
2021/12/31 04:11:49;;;;;;;4.78;1.33;;;19.60;59.40;;;;;;4428466;32;20594;-77
2021/12/31 04:14:15;;;;;;;3.90;1.38;;;19.60;59.40;;;;;;4427914;32;20074;-77
2021/12/31 04:16:41;;;;;;;5.72;1.83;;;19.60;59.40;;;;;;4414433;32;20078;-77
2021/12/31 04:19:07;;;;;;;5.90;1.77;;;19.50;59.40;;;;;;4416412;32;20495;-76
2021/12/31 04:21:33;;;;;;;5.13;1.60;;;19.60;59.40;;;;;;4427900;32;20086;-76
2021/12/31 04:24:13;;;;;;;3.85;1.25;;;19.60;59.40;;;;;;4428142;32;21699;-76
2021/12/31 04:26:39;;;;;;;4.85;1.60;;;19.60;59.40;;;;;;4428264;32;20597;-76
2021/12/31 04:29:06;;;;;;;6.30;1.65;;;19.50;59.40;;;;;;4428130;32;20078;-76
2021/12/31 04:31:31;;;;;;;5.57;1.63;;;19.50;60.30;;;;;;4431297;32;20094;-77
2021/12/31 04:33:59;;;;;;;3.25;1.20;;;19.50;59.40;;;;;;4428087;32;20109;-76
2021/12/31 04:36:25;;;;;;;6.60;1.60;;;19.50;59.40;;;;;;4427765;32;20512;-77
2021/12/31 04:38:51;;;;;;;6.70;1.63;;;19.50;59.40;;;;;;4430211;32;20082;-76
2021/12/31 04:41:17;;;;;;;3.92;1.50;;;19.50;59.40;;;;;;4427712;32;20089;-77
2021/12/31 04:43:43;;;;;;;6.38;1.30;;;19.50;59.40;;;;;;4427001;32;20212;-77
2021/12/31 04:46:10;;;;;;;5.35;1.60;;;19.50;59.50;;;;;;4428409;32;20107;-77
2021/12/31 04:48:36;;;;;;;5.32;1.42;;;19.50;59.50;;;;;;4442430;32;20106;-77
2021/12/31 04:51:02;;;;;;;2.95;1.13;;;19.50;59.50;;;;;;4429390;32;20381;-77
2021/12/31 04:53:28;;;;;;;4.57;1.55;;;19.50;59.50;;;;;;4428708;32;20070;-77
2021/12/31 04:55:54;;;;;;;7.00;2.05;;;19.50;59.50;;;;;;4416885;32;20081;-76
2021/12/31 04:58:19;;;;;;;5.97;1.67;;;19.50;59.50;;;;;;4443200;32;20116;-77
2021/12/31 05:00:45;;;;;;;6.57;1.80;;;19.50;59.50;;;;;;4429053;32;20054;-77
2021/12/31 05:03:11;;;;;;;4.60;1.40;;;19.50;59.50;;;;;;4443158;32;20086;-77
2021/12/31 05:05:38;;;;;;;5.10;1.48;;;19.50;59.50;;;;;;4440511;32;20165;-77
2021/12/31 05:08:04;;;;;;;5.63;1.95;;;19.40;59.40;;;;;;4444819;32;20155;-77
2021/12/31 05:10:32;;;;;;;5.05;1.30;;;19.40;59.40;;;;;;4442710;32;20078;-77
2021/12/31 05:13:02;;;;;;;4.03;1.23;;;19.40;59.40;;;;;;4429069;32;20469;-77
2021/12/31 05:15:33;;;;;;;4.55;1.42;;;19.50;59.50;;;;;;4440667;32;20074;-77
2021/12/31 05:17:59;;;;;;;6.05;1.45;;;19.40;59.50;;;;;;4443253;32;20101;-77
2021/12/31 05:20:25;;;;;;;6.20;1.52;;;19.50;59.50;;;;;;4445097;32;20074;-77
2021/12/31 05:22:52;;;;;;;5.18;1.70;;;19.40;59.50;;;;;;4429912;32;20224;-77
2021/12/31 05:25:19;;;;;;;6.50;1.50;;;19.40;59.50;;;;;;4445955;32;20082;-77
2021/12/31 05:27:45;;;;;;;4.88;1.55;;;19.40;59.40;;;;;;4435782;32;20066;-76
2021/12/31 05:30:11;;;;;;;6.90;1.50;;;19.40;59.40;;;;;;4431073;32;20093;-77
2021/12/31 05:32:37;;;;;;;4.90;1.35;;;19.40;59.50;;;;;;4430981;32;20082;-76
2021/12/31 05:35:03;;;;;;;5.20;1.20;;;19.40;59.50;;;;;;4442629;32;20062;-77
2021/12/31 05:37:29;;;;;;;4.43;1.40;;;19.40;59.50;;;;;;4442808;32;20120;-77
2021/12/31 05:39:55;;;;;;;7.40;1.85;;;19.40;59.50;;;;;;4443046;32;20157;-78
2021/12/31 05:42:21;;;;;;;3.55;1.50;;;19.40;59.50;;;;;;4445105;32;20085;-81
2021/12/31 05:44:50;;;;;;;4.43;1.33;;;19.40;59.60;;;;;;4431146;32;20188;-77
2021/12/31 05:47:16;;;;;;;6.10;1.55;;;19.30;59.50;;;;;;4444846;32;20078;-77
2021/12/31 05:49:42;;;;;;;4.15;1.20;;;19.30;59.50;;;;;;4442862;32;20303;-77
2021/12/31 05:52:08;;;;;;;4.97;1.48;;;19.30;59.50;;;;;;4442799;32;20059;-77
2021/12/31 05:54:34;;;;;;;5.43;1.20;;;19.40;59.60;;;;;;4445316;32;20088;-76
2021/12/31 05:57:00;;;;;;;4.60;1.50;;;19.30;59.50;;;;;;4446438;32;20118;-77
2021/12/31 05:59:25;;;;;;;3.53;1.30;;;19.30;59.50;;;;;;4445500;32;20125;-78
2021/12/31 06:01:51;;;;;;;2.92;1.30;;;19.30;59.50;;;;;;4446273;32;20082;-77
2021/12/31 06:04:17;;;;;;;5.45;1.60;;;19.30;59.50;;;;;;4432179;32;20396;-77
2021/12/31 06:06:43;;;;;;;3.75;1.30;;;19.30;59.50;;;;;;4445878;32;20108;-77
2021/12/31 06:09:12;;;;;;;5.03;1.20;;;19.30;59.50;;;;;;4446237;32;20645;-77
2021/12/31 06:11:38;;;;;;;4.57;1.17;;;19.30;59.60;;;;;;4445715;32;20188;-77
2021/12/31 06:14:05;;;;;;;7.28;1.48;;;19.30;59.60;;;;;;4445733;32;20149;-76
2021/12/31 06:16:41;;;;;;;4.20;1.23;;;19.30;59.60;;;;;;4418842;32;20109;-76
2021/12/31 06:19:09;;;;;;;2.80;1.20;;;19.30;59.50;;;;;;4446142;32;20082;-77
2021/12/31 06:21:37;;;;;;;5.82;1.20;;;19.30;59.60;;;;;;4445630;32;20161;-77
2021/12/31 06:24:03;;;;;;;5.05;1.42;;;19.30;59.60;;;;;;4445989;32;20599;-76
2021/12/31 06:26:30;;;;;;;4.97;1.35;;;19.20;59.60;;;;;;4431391;32;20110;-77
2021/12/31 06:28:56;;;;;;;5.38;1.45;;;19.30;59.60;;;;;;4445947;32;20093;-76
2021/12/31 06:31:23;;;;;;;3.40;1.30;;;19.30;59.60;;;;;;4445645;32;20071;-76
2021/12/31 06:33:48;;;;;;;4.47;1.20;;;19.20;59.60;;;;;;4445405;32;20082;-76
2021/12/31 06:36:15;;;;;;;3.03;1.08;;;19.20;59.60;;;;;;4445827;32;20156;-76
2021/12/31 06:38:41;;;;;;;4.28;1.50;;;19.20;59.60;;;;;;4445290;32;20082;-76
2021/12/31 06:41:07;;;;;;;3.58;1.13;;;19.30;59.70;;;;;;4445261;32;20082;-76
2021/12/31 06:43:32;;;;;;;4.47;1.35;;;19.20;59.60;;;;;;4431150;32;20128;-77
2021/12/31 06:45:59;;;;;;;4.25;1.00;;;19.30;59.70;;;;;;4431854;32;20116;-77
2021/12/31 06:48:26;;;;;;;3.90;1.10;;;19.20;59.60;;;;;;4431752;32;20159;-76
2021/12/31 06:50:52;;;;;;;5.20;1.15;;;19.20;59.60;;;;;;4445197;32;20444;-77
2021/12/31 06:53:18;;;;;;;2.42;1.05;;;19.20;59.60;;;;;;4431609;32;20097;-76
2021/12/31 06:55:44;;;;;;;2.97;1.10;;;19.20;59.60;;;;;;4444657;32;20481;-76
2021/12/31 06:58:09;;;;;;;2.30;1.00;;;19.20;59.60;;;;;;4431599;32;20098;-77
2021/12/31 07:00:35;;;;;;;2.08;1.00;;;19.20;59.60;;;;;;4444480;32;20196;-78
2021/12/31 07:03:06;;;;;;;4.32;1.10;;;19.20;59.60;;;;;;4442424;32;20058;-77
2021/12/31 07:05:32;;;;;;;5.43;1.20;;;19.20;59.60;;;;;;4442245;32;20097;-80
2021/12/31 07:07:58;;;;;;;2.38;0.95;;;19.20;59.60;;;;;;4443929;32;20081;-77
2021/12/31 07:10:24;;;;;;;3.63;1.17;;;19.20;59.60;;;;;;4442344;32;20113;-77
2021/12/31 07:12:55;;;;;;;3.28;1.00;;;19.20;59.60;;;;;;4443931;32;20117;-76
2021/12/31 07:15:21;;;;;;;3.55;0.90;;;19.20;59.60;;;;;;4431321;32;20105;-76
2021/12/31 07:17:47;;;;;;;2.08;0.98;;;19.20;59.60;;;;;;4444887;32;20501;-77
2021/12/31 07:20:13;;;;;;;2.95;1.30;;;19.20;59.60;;;;;;4431173;32;20080;-76
2021/12/31 07:22:39;;;;;;;2.20;0.80;;;19.10;59.60;;;;;;4430764;32;20058;-76
2021/12/31 07:25:05;;;;;;;3.03;1.13;;;19.10;59.60;;;;;;4430455;32;20185;-76
2021/12/31 07:27:33;;;;;;;3.10;1.20;;;19.10;59.60;;;;;;4437798;32;20160;-75
2021/12/31 07:29:59;;;;;;;3.15;1.02;;;19.20;59.70;;;;;;4428730;32;20078;-76
2021/12/31 07:32:26;;;;;;;3.25;1.13;;;19.10;59.60;;;;;;4430994;32;20081;-76
2021/12/31 07:34:52;;;;;;;11.32;1.30;;;19.10;59.70;;;;;;4414717;32;20801;-77
2021/12/31 07:37:18;;;;;;;2.28;1.02;;;19.10;59.70;;;;;;4428775;32;20085;-76
2021/12/31 07:39:48;;;;;;;2.15;0.77;;;19.10;59.70;;;;;;4430537;32;20093;-77
2021/12/31 07:42:14;;;;;;;3.33;0.98;;;19.10;59.70;;;;;;4428092;32;20078;-76
2021/12/31 07:44:41;;;;;;;2.85;1.02;;;19.10;59.70;;;;;;4430687;32;20071;-76
2021/12/31 07:47:08;;;;;;;2.13;1.08;;;19.10;59.70;;;;;;4429219;32;20275;-76
2021/12/31 07:49:33;;;;;;;3.72;1.50;;;19.10;59.70;;;;;;4435194;32;20492;-76
2021/12/31 07:51:59;;;;;;;4.07;1.00;;;19.10;59.70;;;;;;4442880;32;20099;-77
2021/12/31 07:54:25;;;;;;;5.05;1.30;;;19.10;59.70;;;;;;4436317;32;20059;-77
2021/12/31 07:56:51;;;;;;;3.13;1.10;;;19.10;59.70;;;;;;4434961;32;20085;-78
2021/12/31 07:59:17;;;;;;;7.80;1.08;;;19.10;59.80;;;;;;4443012;32;20066;-78
2021/12/31 08:01:43;;;;;;;3.88;0.90;;;19.00;59.70;;;;;;4442628;32;20090;-78
2021/12/31 08:04:08;;;;;;;3.08;1.05;;;19.10;59.80;;;;;;4445228;32;20097;-79
2021/12/31 08:06:34;;;;;;;6.47;1.33;;;19.00;59.70;;;;;;4442923;32;20270;-80
2021/12/31 08:09:00;;;;;;;3.58;1.08;;;19.00;60.00;;;;;;4444087;32;20122;-78
2021/12/31 08:11:26;;;;;;;4.47;1.38;;;19.10;60.30;;;;;;4430456;32;20081;-80
2021/12/31 08:13:51;;;;;;;5.00;1.10;;;19.10;60.50;;;;;;4444159;32;20254;-81
2021/12/31 08:16:18;;;;;;;4.35;1.10;;;19.10;60.40;;;;;;4444410;32;20058;-79
2021/12/31 08:18:45;;;;;;;3.47;1.15;;;19.10;60.40;;;;;;4430044;32;20076;-80
2021/12/31 08:21:11;;;;;;;4.53;1.25;;;19.10;60.30;;;;;;4417574;32;20070;-78
2021/12/31 08:23:36;;;;;;;5.07;1.05;;;19.20;60.20;;;;;;4430491;32;20138;-77
2021/12/31 08:26:05;;;;;;;4.80;1.13;;;19.20;60.10;;;;;;4429995;32;20086;-79
2021/12/31 08:28:31;;;;;;;3.85;0.90;;;19.30;60.00;;;;;;4444310;32;20114;-77
2021/12/31 08:30:58;;;;;;;4.68;0.98;;;19.40;59.80;;;;;;4443915;32;20172;-78
2021/12/31 08:33:27;;;;;;;2.72;0.82;;;19.50;59.50;;;;;;4444173;32;20093;-78
2021/12/31 08:35:53;;;;;;;2.85;0.95;;;19.60;59.30;;;;;;4443765;32;20102;-80
2021/12/31 08:38:19;;;;;;;5.82;1.00;;;19.70;59.10;;;;;;4444147;32;20136;-81
2021/12/31 08:40:45;;;;;;;3.10;1.00;;;19.80;58.90;;;;;;4429854;32;20216;-83
2021/12/31 08:43:11;;;;;;;4.97;1.05;;;19.90;58.80;;;;;;4444270;32;20084;-79
2021/12/31 08:45:37;;;;;;;2.75;0.85;;;19.90;58.60;;;;;;4443859;32;20078;-79
2021/12/31 08:48:04;;;;;;;3.85;0.85;;;20.00;58.60;;;;;;4443378;32;20118;-79
2021/12/31 08:50:35;;;;;;;2.50;1.10;;;20.00;58.40;;;;;;4444071;32;20078;-78
2021/12/31 08:53:02;;;;;;;2.85;0.98;;;20.10;58.40;;;;;;4444511;32;20479;-79
2021/12/31 08:55:28;;;;;;;2.10;0.93;;;20.10;58.30;;;;;;4447021;32;20252;-78
2021/12/31 08:57:54;;;;;;;2.90;0.90;;;20.20;58.30;;;;;;4447054;32;20100;-79
2021/12/31 09:00:20;;;;;;;2.45;0.75;;;20.20;58.20;;;;;;4447106;32;20620;-78
2021/12/31 09:02:48;;;;;;;2.67;0.98;;;20.20;58.10;;;;;;4446727;32;20208;-82
2021/12/31 09:05:14;;;;;;;5.43;1.05;;;20.20;58.10;;;;;;4447294;32;20082;-78
2021/12/31 09:07:40;;;;;;;3.92;1.00;;;20.20;58.00;;;;;;4446982;32;20110;-78
2021/12/31 09:10:08;;;;;;;2.90;1.25;;;20.30;57.90;;;;;;4432744;32;20595;-79
2021/12/31 09:12:34;;;;;;;4.57;0.90;;;20.30;57.90;;;;;;4433359;32;20088;-78
2021/12/31 09:15:00;;;;;;;4.28;0.70;;;20.30;57.90;;;;;;4446563;32;20121;-79
2021/12/31 09:17:26;;;;;;;2.35;0.80;;;20.30;57.80;;;;;;4446553;32;20081;-78
2021/12/31 09:19:52;;;;;;;4.78;1.08;;;20.30;57.90;;;;;;4426272;32;20208;-78
2021/12/31 09:22:18;;;;;;;2.67;0.88;;;20.30;57.90;;;;;;4430623;32;20081;-79
2021/12/31 09:24:44;;;;;;;2.45;0.80;;;20.30;57.80;;;;;;4431517;32;20468;-79
2021/12/31 09:27:10;;;;;;;3.17;0.93;;;20.30;57.80;;;;;;4416952;32;20119;-79
2021/12/31 09:29:36;;;;;;;3.70;0.98;;;20.30;57.80;;;;;;4431283;32;20067;-80
2021/12/31 09:32:02;;;;;;;1.98;1.00;;;20.30;57.80;;;;;;4430921;32;20501;-78
2021/12/31 09:34:28;;;;;;;2.28;0.85;;;20.40;57.90;;;;;;4431030;32;20395;-78
2021/12/31 09:36:54;;;;;;;5.28;1.10;;;20.40;57.90;;;;;;4430863;32;20081;-79
2021/12/31 09:39:19;;;;;;;5.10;1.25;;;20.40;57.80;;;;;;4431156;32;20501;-78
2021/12/31 09:41:46;;;;;;;7.43;1.00;;;20.40;58.70;;;;;;4417307;32;20086;-78
2021/12/31 09:44:15;;;;;;;4.07;1.00;;;20.50;57.80;;;;;;4429364;32;20252;-79
2021/12/31 09:46:41;;;;;;;2.85;0.90;;;20.40;57.70;;;;;;4430991;32;20132;-78
2021/12/31 09:49:08;;;;;;;5.30;1.25;;;20.40;57.70;;;;;;4430706;32;20425;-80
2021/12/31 09:51:34;;;;;;;6.15;1.00;;;20.50;57.60;;;;;;4429625;32;20093;-79
2021/12/31 09:54:01;;;;;;;5.88;1.27;;;20.40;57.50;;;;;;4416792;32;20125;-78
2021/12/31 09:56:27;;;;;;;2.17;0.90;;;20.40;57.50;;;;;;4430996;32;20523;-78
2021/12/31 09:58:53;;;;;;;9.70;1.38;;;20.40;57.50;;;;;;4430614;32;20075;-79
2021/12/31 10:01:19;;;;;;;7.28;1.27;;;20.40;57.60;;;;;;4430287;32;20085;-81
2021/12/31 10:04:00;;;;;;;3.55;1.23;;;20.40;57.60;;;;;;4431925;32;20070;-79
2021/12/31 10:06:26;;;;;;;5.13;1.17;;;20.40;57.70;;;;;;4441620;32;20163;-78
2021/12/31 10:08:56;;;;;;;3.85;1.20;;;20.40;57.70;;;;;;4432206;32;20137;-78
2021/12/31 10:11:26;;;;;;;10.27;1.20;;;20.40;57.70;;;;;;4445872;32;20220;-79
2021/12/31 10:13:51;;;;;;;3.90;1.15;;;20.40;57.70;;;;;;4446153;32;20101;-80
2021/12/31 10:16:28;;;;;;;7.82;1.10;;;20.40;57.60;;;;;;4445905;32;20800;-80
2021/12/31 10:19:05;;;;;;;7.68;1.45;;;20.40;57.60;;;;;;4446268;32;20501;-80
2021/12/31 10:21:40;;;;;;;4.13;1.25;;;20.50;58.00;;;;;;4445694;32;20141;-81
2021/12/31 10:24:21;;;;;;;3.83;1.30;;;20.50;57.90;;;;;;4431398;32;20078;-78
2021/12/31 10:26:48;;;;;;;9.32;1.17;;;20.50;57.80;;;;;;4445781;32;20089;-81
2021/12/31 10:29:15;;;;;;;5.30;1.58;;;20.50;57.80;;;;;;4445652;32;20197;-82
2021/12/31 10:31:45;;;;;;;5.22;1.00;;;20.50;57.80;;;;;;4445919;32;20110;-80
2021/12/31 10:34:36;;;;;;;6.35;1.70;;;20.50;57.90;;;;;;4445308;32;20085;-82
2021/12/31 10:37:17;;;;;;;3.38;1.33;;;20.60;58.00;;;;;;4445767;32;20074;-81
2021/12/31 10:39:44;;;;;;;5.35;1.10;;;20.60;58.00;;;;;;4445593;32;20070;-82
2021/12/31 10:42:12;;;;;;;3.08;1.38;;;20.50;58.00;;;;;;4445453;32;20639;-82
2021/12/31 10:44:41;;;;;;;2.42;1.20;;;20.60;58.00;;;;;;4419093;32;20096;-81
2021/12/31 10:47:10;;;;;;;7.28;1.40;;;20.60;58.10;;;;;;4431192;32;20200;-83
2021/12/31 10:49:55;;;;;;;5.63;1.20;;;20.60;58.00;;;;;;4431768;32;20101;-81
2021/12/31 10:52:34;;;;;;;5.80;1.52;;;20.60;58.00;;;;;;4444482;32;20723;-82
2021/12/31 10:57:42;;;;;;;8.48;1.40;;;20.60;58.10;;;;;;4444698;32;20093;-80
2021/12/31 11:00:10;;;;;;;5.28;1.40;;;20.60;58.10;;;;;;4430691;32;20097;-80
2021/12/31 11:02:37;;;;;;;4.28;1.40;;;20.60;58.10;;;;;;4445587;32;20151;-79
2021/12/31 11:05:04;;;;;;;3.88;1.10;;;20.60;58.10;;;;;;4445201;32;20090;-80
2021/12/31 11:07:31;;;;;;;5.32;1.40;;;20.60;58.20;;;;;;4445136;32;20404;-80
2021/12/31 11:10:04;;;;;;;2.15;1.13;;;20.50;58.20;;;;;;4431555;32;20074;-80
2021/12/31 11:12:31;;;;;;;4.95;1.35;;;20.50;58.30;;;;;;4445104;32;20086;-82
2021/12/31 11:14:57;;;;;;;3.03;1.13;;;20.50;58.30;;;;;;4445048;32;20096;-81
2021/12/31 11:17:24;;;;;;;4.07;1.40;;;20.50;58.40;;;;;;4444828;32;20126;-82
2021/12/31 11:19:51;;;;;;;5.65;1.40;;;20.50;58.40;;;;;;4445162;32;20110;-84
2021/12/31 11:22:22;;;;;;;4.47;1.58;;;20.50;58.50;;;;;;4430943;32;20098;-82
2021/12/31 11:24:49;;;;;;;7.15;1.30;;;20.40;58.50;;;;;;4445208;32;20097;-82
2021/12/31 11:27:35;;;;;;;5.53;1.23;;;20.40;58.60;;;;;;4444736;32;20082;-83
2021/12/31 11:30:03;;;;;;;4.88;1.50;;;20.40;58.60;;;;;;4445239;32;20118;-83
2021/12/31 11:32:47;;;;;;;5.05;1.27;;;20.40;58.80;;;;;;4430590;32;20074;-83
2021/12/31 11:35:28;;;;;;;4.90;1.25;;;20.30;58.90;;;;;;4445780;32;20087;-83
2021/12/31 11:37:54;;;;;;;4.47;1.20;;;20.30;59.00;;;;;;4430129;32;20155;-81
2021/12/31 11:40:38;;;;;;;5.07;1.42;;;20.20;59.10;;;;;;4429538;32;20133;-79
2021/12/31 11:43:25;;;;;;;5.00;1.38;;;20.20;59.30;;;;;;4444083;32;20089;-81
2021/12/31 11:46:09;;;;;;;6.38;1.95;;;20.20;59.40;;;;;;4444009;32;20473;-81
2021/12/31 11:51:12;;;;;;;5.18;1.48;;;20.10;59.80;;;;;;4443399;32;20137;-80
2021/12/31 11:53:56;;;;;;;7.25;1.50;;;20.10;59.90;;;;;;4443815;32;20412;-79
2021/12/31 11:56:34;;;;;;;4.50;1.65;;;20.10;60.10;;;;;;4441319;32;20508;-78
2021/12/31 11:59:16;;;;;;;7.50;1.90;;;20.10;60.20;;;;;;4443791;32;20125;-79
2021/12/31 12:01:46;;;;;;;5.50;1.50;;;20.10;61.30;;;;;;4443682;32;20066;-78
2021/12/31 12:04:32;;;;;;;6.80;1.80;;;20.10;60.40;;;;;;4441181;32;20094;-80
2021/12/31 12:07:15;;;;;;;5.90;1.55;;;20.10;60.40;;;;;;4443664;32;20397;-80
2021/12/31 12:09:44;;;;;;;4.78;1.50;;;20.10;60.40;;;;;;4443667;32;20220;-78
2021/12/31 12:12:34;;;;;;;6.50;1.50;;;20.10;60.30;;;;;;4443422;32;20243;-80
2021/12/31 12:15:03;;;;;;;5.03;1.70;;;20.20;60.30;;;;;;4444289;32;20655;-79
2021/12/31 12:17:29;;;;;;;4.47;1.27;;;20.20;60.30;;;;;;4430089;32;20168;-79
2021/12/31 12:20:00;;;;;;;4.10;1.70;;;20.30;60.40;;;;;;4443985;32;20081;-78
2021/12/31 12:22:32;;;;;;;6.93;1.40;;;20.30;60.60;;;;;;4443959;32;20531;-79
2021/12/31 12:25:09;;;;;;;3.85;1.40;;;20.30;60.60;;;;;;4444366;32;20073;-79
2021/12/31 12:27:36;;;;;;;4.15;1.50;;;20.30;60.50;;;;;;4443629;32;20235;-76
2021/12/31 12:30:11;;;;;;;5.28;1.52;;;20.30;60.60;;;;;;4443312;32;20160;-76
2021/12/31 12:35:15;;;;;;;3.08;1.20;;;20.30;60.50;;;;;;4442436;32;20159;-76
2021/12/31 12:37:42;;;;;;;3.97;1.58;;;20.40;60.60;;;;;;4442636;32;20590;-76
2021/12/31 12:40:09;;;;;;;5.25;2.00;;;20.40;60.70;;;;;;4441473;32;20496;-76
2021/12/31 12:42:35;;;;;;;4.10;1.40;;;20.40;60.70;;;;;;4427399;32;20110;-76
2021/12/31 12:45:07;;;;;;;5.97;1.80;;;20.40;60.70;;;;;;4441107;32;20239;-79
2021/12/31 12:47:37;;;;;;;3.25;1.20;;;20.40;60.80;;;;;;4441682;32;20417;-76
2021/12/31 12:50:09;;;;;;;5.05;1.50;;;20.40;60.70;;;;;;4442996;32;20066;-78
2021/12/31 12:52:36;;;;;;;4.75;1.60;;;20.50;60.70;;;;;;4442803;32;20101;-75
2021/12/31 12:55:17;;;;;;;9.75;1.60;;;20.50;60.70;;;;;;4440846;32;20405;-76
2021/12/31 12:57:53;;;;;;;4.85;1.45;;;20.50;60.60;;;;;;4442255;32;20544;-77